createdAt,value
2023-04-15T00:00:56.567Z,7.27
2023-04-15T00:03:23.290Z,7.31
2023-04-15T00:05:50.095Z,7.24
2023-04-15T00:08:16.607Z,7.10
2023-04-15T00:10:43.082Z,7.13
2023-04-15T00:13:09.842Z,7.11
2023-04-15T00:15:36.367Z,7.23
2023-04-15T00:18:02.901Z,7.24
2023-04-15T00:20:29.349Z,7.21
2023-04-15T00:22:55.857Z,7.31
2023-04-15T00:25:22.336Z,7.39
2023-04-15T00:27:48.815Z,7.30
2023-04-15T00:30:15.344Z,7.21
2023-04-15T00:32:41.881Z,7.24
2023-04-15T00:35:08.816Z,7.32
2023-04-15T00:37:35.312Z,7.31
2023-04-15T00:40:01.800Z,7.28
2023-04-15T00:42:28.778Z,7.17
2023-04-15T00:44:55.265Z,6.99
2023-04-15T00:47:21.861Z,6.83
2023-04-15T00:49:48.347Z,6.68
2023-04-15T00:52:14.968Z,6.59
2023-04-15T00:54:41.458Z,6.60
2023-04-15T00:57:08.029Z,6.66
2023-04-15T00:59:34.671Z,6.57
2023-04-15T01:02:01.360Z,6.58
2023-04-15T01:04:28.031Z,6.69
2023-04-15T01:06:54.652Z,6.82
2023-04-15T01:09:21.161Z,6.89
2023-04-15T01:11:47.813Z,6.79
2023-04-15T01:14:14.348Z,6.78
2023-04-15T01:16:40.879Z,6.79
2023-04-15T01:19:10.725Z,6.81
2023-04-15T01:21:37.836Z,6.88
2023-04-15T01:24:10.644Z,6.72
2023-04-15T01:26:41.123Z,6.64
2023-04-15T01:29:07.703Z,6.60
2023-04-15T01:31:34.360Z,6.64
2023-04-15T01:34:00.947Z,6.69
2023-04-15T01:36:27.862Z,6.72
2023-04-15T01:38:55.871Z,6.87
2023-04-15T01:41:28.153Z,6.93
2023-04-15T01:43:55.029Z,6.86
2023-04-15T01:46:21.634Z,6.89
2023-04-15T01:48:48.152Z,6.97
2023-04-15T01:51:14.675Z,7.01
2023-04-15T01:53:41.168Z,7.06
2023-04-15T01:56:07.899Z,7.04
2023-04-15T01:58:34.424Z,6.97
2023-04-15T02:01:00.934Z,6.91
2023-04-15T02:03:29.037Z,6.88
2023-04-15T02:05:55.653Z,6.87
2023-04-15T02:08:22.277Z,6.82
2023-04-15T02:10:48.764Z,6.80
2023-04-15T02:13:15.248Z,6.85
2023-04-15T02:15:47.301Z,6.64
2023-04-15T02:18:13.906Z,6.60
2023-04-15T02:20:40.417Z,6.60
2023-04-15T02:23:06.901Z,6.48
2023-04-15T02:25:33.442Z,6.34
2023-04-15T02:27:59.935Z,6.31
2023-04-15T02:30:26.398Z,6.37
2023-04-15T02:32:52.989Z,6.36
2023-04-15T02:35:19.560Z,6.28
2023-04-15T02:37:46.040Z,6.32
2023-04-15T02:40:13.350Z,6.35
2023-04-15T02:42:40.095Z,6.20
2023-04-15T02:45:07.208Z,6.23
2023-04-15T02:47:34.985Z,6.28
2023-04-15T02:50:03.353Z,6.12
2023-04-15T02:52:29.859Z,5.97
2023-04-15T02:54:56.415Z,6.05
2023-04-15T02:57:23.196Z,6.11
2023-04-15T02:59:49.664Z,5.93
2023-04-15T03:02:16.316Z,5.87
2023-04-15T03:04:42.960Z,5.71
2023-04-15T03:07:09.464Z,5.56
2023-04-15T03:09:35.960Z,5.66
2023-04-15T03:12:03.055Z,5.69
2023-04-15T03:14:29.599Z,5.60
2023-04-15T03:16:56.127Z,5.48
2023-04-15T03:19:22.743Z,5.51
2023-04-15T03:21:49.210Z,5.58
2023-04-15T03:24:15.808Z,5.63
2023-04-15T03:26:42.311Z,5.64
2023-04-15T03:29:08.882Z,5.58
2023-04-15T03:31:35.422Z,5.58
2023-04-15T03:34:01.932Z,5.54
2023-04-15T03:36:29.776Z,5.50
2023-04-15T03:38:56.273Z,5.40
2023-04-15T03:41:22.721Z,5.20
2023-04-15T03:43:49.215Z,5.04
2023-04-15T03:46:15.783Z,5.10
2023-04-15T03:48:42.288Z,5.21
2023-04-15T03:51:08.752Z,5.18
2023-04-15T03:53:35.288Z,5.24
2023-04-15T03:56:01.823Z,5.13
2023-04-15T03:58:28.416Z,5.15
2023-04-15T04:00:54.950Z,5.12
2023-04-15T04:03:21.712Z,5.14
2023-04-15T04:05:48.557Z,5.08
2023-04-15T04:08:15.075Z,5.04
2023-04-15T04:10:41.904Z,4.98
2023-04-15T04:13:08.679Z,5.10
2023-04-15T04:15:35.237Z,5.26
2023-04-15T04:18:01.923Z,5.40
2023-04-15T04:20:28.461Z,5.46
2023-04-15T04:22:54.958Z,5.44
2023-04-15T04:25:21.428Z,5.45
2023-04-15T04:27:47.890Z,5.45
2023-04-15T04:30:14.401Z,5.51
2023-04-15T04:32:40.967Z,5.54
2023-04-15T04:35:07.926Z,5.63
2023-04-15T04:37:34.411Z,5.74
2023-04-15T04:40:00.900Z,5.79
2023-04-15T04:42:27.520Z,5.87
2023-04-15T04:44:54.057Z,5.95
2023-04-15T04:47:20.637Z,6.00
2023-04-15T04:49:47.261Z,6.06
2023-04-15T04:52:13.840Z,6.07
2023-04-15T04:54:40.352Z,6.05
2023-04-15T04:57:06.833Z,6.03
2023-04-15T04:59:33.661Z,6.07
2023-04-15T05:02:00.330Z,6.10
2023-04-15T05:04:26.862Z,6.15
2023-04-15T05:06:53.382Z,6.28
2023-04-15T05:09:19.867Z,6.13
2023-04-15T05:11:46.349Z,6.23
2023-04-15T05:14:12.858Z,6.34
2023-04-15T05:16:39.366Z,6.45
2023-04-15T05:19:05.885Z,6.69
2023-04-15T05:21:32.400Z,6.82
2023-04-15T05:23:58.994Z,6.86
2023-04-15T05:26:25.469Z,7.33
2023-04-15T05:28:51.983Z,7.90
2023-04-15T05:31:18.605Z,8.06
2023-04-15T05:33:45.211Z,8.67
2023-04-15T05:36:11.706Z,9.16
2023-04-15T05:38:38.207Z,9.26
2023-04-15T05:41:04.798Z,9.56
2023-04-15T05:43:31.294Z,10.65
2023-04-15T05:45:57.825Z,10.40
2023-04-15T05:48:24.334Z,10.35
2023-04-15T05:50:50.897Z,10.64
2023-04-15T05:53:17.464Z,11.40
2023-04-15T05:55:43.986Z,12.01
2023-04-15T05:58:10.482Z,13.36
2023-04-15T06:00:37.096Z,14.81
2023-04-15T06:03:03.921Z,15.63
2023-04-15T06:05:30.496Z,16.05
2023-04-15T06:07:56.979Z,16.51
2023-04-15T06:10:23.440Z,17.44
2023-04-15T06:12:49.976Z,17.54
2023-04-15T06:15:16.489Z,17.87
2023-04-15T06:17:43.054Z,18.23
2023-04-15T06:20:10.123Z,18.49
2023-04-15T06:22:37.618Z,18.38
2023-04-15T06:25:04.542Z,18.90
2023-04-15T06:27:31.060Z,19.02
2023-04-15T06:29:57.550Z,19.07
2023-04-15T06:32:24.049Z,19.52
2023-04-15T06:34:50.552Z,19.95
2023-04-15T06:37:17.077Z,19.72
2023-04-15T06:39:43.578Z,19.84
2023-04-15T06:42:11.165Z,20.24
2023-04-15T06:44:37.952Z,19.08
2023-04-15T06:47:04.425Z,18.29
2023-04-15T06:49:30.928Z,18.20
2023-04-15T06:51:57.467Z,18.23
2023-04-15T06:54:23.951Z,17.99
2023-04-15T06:56:50.457Z,17.03
2023-04-15T06:59:16.955Z,16.69
2023-04-15T07:01:44.921Z,16.20
2023-04-15T07:04:11.419Z,15.87
2023-04-15T07:06:37.977Z,15.39
2023-04-15T07:09:04.719Z,15.30
2023-04-15T07:11:31.542Z,15.27
2023-04-15T07:13:58.422Z,15.76
2023-04-15T07:16:25.760Z,15.78
2023-04-15T07:18:53.110Z,16.68
2023-04-15T07:21:19.619Z,17.21
2023-04-15T07:23:46.110Z,17.88
2023-04-15T07:26:12.770Z,18.06
2023-04-15T07:28:39.274Z,18.77
2023-04-15T07:31:05.805Z,19.43
2023-04-15T07:33:32.454Z,19.78
2023-04-15T07:35:58.959Z,20.46
2023-04-15T07:38:26.550Z,20.80
2023-04-15T07:40:53.157Z,21.17
2023-04-15T07:43:19.688Z,21.48
2023-04-15T07:45:46.182Z,21.22
2023-04-15T07:48:12.728Z,21.56
2023-04-15T07:50:39.509Z,21.20
2023-04-15T07:53:07.258Z,21.32
2023-04-15T07:55:33.808Z,22.33
2023-04-15T07:58:00.337Z,22.64
2023-04-15T08:00:26.862Z,21.45
2023-04-15T08:02:53.616Z,22.21
2023-04-15T08:05:20.365Z,21.13
2023-04-15T08:07:46.767Z,21.67
2023-04-15T08:10:13.259Z,21.68
2023-04-15T08:12:39.852Z,21.20
2023-04-15T08:15:06.914Z,21.60
2023-04-15T08:17:33.523Z,22.21
2023-04-15T08:19:59.971Z,21.80
2023-04-15T08:22:26.471Z,22.60
2023-04-15T08:24:54.193Z,22.40
2023-04-15T08:27:20.690Z,21.89
2023-04-15T08:29:47.192Z,21.16
2023-04-15T08:32:13.750Z,22.08
2023-04-15T08:34:40.273Z,22.94
2023-04-15T08:37:06.786Z,22.74
2023-04-15T08:39:33.289Z,23.29
2023-04-15T08:42:04.412Z,24.10
2023-04-15T08:44:34.808Z,22.64
2023-04-15T08:47:02.342Z,21.85
2023-04-15T08:49:29.811Z,21.52
2023-04-15T08:51:59.261Z,21.28
2023-04-15T08:54:26.909Z,20.75
2023-04-15T08:56:53.693Z,21.57
2023-04-15T08:59:21.632Z,21.52
2023-04-15T09:01:49.998Z,22.04
2023-04-15T09:04:17.551Z,22.13
2023-04-15T09:06:44.160Z,22.86
2023-04-15T09:09:10.534Z,23.54
2023-04-15T09:11:37.060Z,22.28
2023-04-15T09:14:03.566Z,21.79
2023-04-15T09:16:30.075Z,21.47
2023-04-15T09:18:56.612Z,21.93
2023-04-15T09:21:24.540Z,22.02
2023-04-15T09:23:56.778Z,21.86
2023-04-15T09:26:36.802Z,22.04
2023-04-15T09:29:11.140Z,22.49
2023-04-15T09:31:37.687Z,22.25
2023-04-15T09:34:04.604Z,23.01
2023-04-15T09:36:58.745Z,22.83
2023-04-15T09:39:25.225Z,23.09
2023-04-15T09:42:07.834Z,21.62
2023-04-15T09:44:34.412Z,22.35
2023-04-15T09:47:01.031Z,22.42
2023-04-15T09:49:27.660Z,22.42
2023-04-15T09:52:05.616Z,23.18
2023-04-15T09:54:34.183Z,22.96
2023-04-15T09:57:08.938Z,23.00
2023-04-15T09:59:35.797Z,22.74
2023-04-15T10:02:04.912Z,22.03
2023-04-15T10:04:35.195Z,23.00
2023-04-15T10:07:03.871Z,23.32
2023-04-15T10:09:31.089Z,23.74
2023-04-15T10:11:57.577Z,23.61
2023-04-15T10:14:25.576Z,23.02
2023-04-15T10:16:56.324Z,22.80
2023-04-15T10:19:27.597Z,22.49
2023-04-15T10:21:55.338Z,22.97
2023-04-15T10:24:22.881Z,23.38
2023-04-15T10:26:51.041Z,22.93
2023-04-15T10:29:17.868Z,22.99
2023-04-15T10:31:44.921Z,23.66
2023-04-15T10:34:13.067Z,23.69
2023-04-15T10:36:39.738Z,23.75
2023-04-15T10:39:41.939Z,24.10
2023-04-15T10:42:16.419Z,24.10
2023-04-15T10:44:44.963Z,23.47
2023-04-15T10:47:14.168Z,23.27
2023-04-15T10:49:49.087Z,23.18
2023-04-15T10:52:17.077Z,22.39
2023-04-15T10:54:44.578Z,22.65
2023-04-15T10:57:16.855Z,22.98
2023-04-15T11:00:16.051Z,23.47
2023-04-15T11:02:55.067Z,23.71
2023-04-15T11:05:43.273Z,23.55
2023-04-15T11:08:10.867Z,23.76
2023-04-15T11:10:37.346Z,23.60
2023-04-15T11:13:04.750Z,23.65
2023-04-15T11:15:41.104Z,24.23
2023-04-15T11:18:21.871Z,24.42
2023-04-15T11:20:53.875Z,24.66
2023-04-15T11:23:28.473Z,24.43
2023-04-15T11:25:56.062Z,24.49
2023-04-15T11:28:25.972Z,24.75
2023-04-15T11:30:52.576Z,24.04
2023-04-15T11:33:19.118Z,24.19
2023-04-15T11:35:45.666Z,23.79
2023-04-15T11:38:14.231Z,24.09
2023-04-15T11:40:44.539Z,24.15
2023-04-15T11:43:17.517Z,24.20
2023-04-15T11:45:57.671Z,23.83
2023-04-15T11:48:31.020Z,23.58
2023-04-15T11:51:07.524Z,23.44
2023-04-15T11:53:36.751Z,23.32
2023-04-15T11:56:03.288Z,23.64
2023-04-15T11:58:29.718Z,23.76
2023-04-15T12:01:01.022Z,23.92
2023-04-15T12:03:28.822Z,22.97
2023-04-15T12:06:15.107Z,22.99
2023-04-15T12:08:59.474Z,22.64
2023-04-15T12:11:34.687Z,22.93
2023-04-15T12:14:31.486Z,22.23
2023-04-15T12:17:02.725Z,22.19
2023-04-15T12:19:40.174Z,22.16
2023-04-15T12:22:13.538Z,22.00
2023-04-15T12:24:40.419Z,21.54
2023-04-15T12:27:09.080Z,21.65
2023-04-15T12:29:37.473Z,21.80
2023-04-15T12:32:08.263Z,21.35
2023-04-15T12:34:37.150Z,22.16
2023-04-15T12:37:05.977Z,22.36
2023-04-15T12:39:41.279Z,22.03
2023-04-15T12:42:08.585Z,22.50
2023-04-15T12:44:36.423Z,22.35
2023-04-15T12:47:03.258Z,22.36
2023-04-15T12:49:32.570Z,22.04
2023-04-15T12:52:00.790Z,22.37
2023-04-15T12:54:28.171Z,22.51
2023-04-15T12:56:54.963Z,22.71
2023-04-15T12:59:21.892Z,22.50
2023-04-15T13:01:48.852Z,22.27
2023-04-15T13:04:16.266Z,22.37
2023-04-15T13:06:43.256Z,21.72
2023-04-15T13:09:09.882Z,21.47
2023-04-15T13:11:36.316Z,21.61
2023-04-15T13:14:04.820Z,22.03
2023-04-15T13:16:32.645Z,22.56
2023-04-15T13:19:00.112Z,22.52
2023-04-15T13:21:26.639Z,22.03
2023-04-15T13:23:53.230Z,21.51
2023-04-15T13:26:19.656Z,21.61
2023-04-15T13:28:46.361Z,21.60
2023-04-15T13:31:12.902Z,21.37
2023-04-15T13:33:39.491Z,21.44
2023-04-15T13:36:06.020Z,21.32
2023-04-15T13:38:32.619Z,21.45
2023-04-15T13:40:59.000Z,21.36
2023-04-15T13:43:25.536Z,20.74
2023-04-15T13:45:52.053Z,20.45
2023-04-15T13:48:18.603Z,20.40
2023-04-15T13:50:45.064Z,20.81
2023-04-15T13:53:12.549Z,21.47
2023-04-15T13:55:39.142Z,21.32
2023-04-15T13:58:05.664Z,21.50
2023-04-15T14:00:32.169Z,21.83
2023-04-15T14:02:58.772Z,22.15
2023-04-15T14:05:25.588Z,22.54
2023-04-15T14:07:51.943Z,22.39
2023-04-15T14:10:18.568Z,22.88
2023-04-15T14:12:44.949Z,23.00
2023-04-15T14:15:11.555Z,22.93
2023-04-15T14:17:38.155Z,23.41
2023-04-15T14:20:07.623Z,23.45
2023-04-15T14:22:34.158Z,23.63
2023-04-15T14:25:00.585Z,23.83
2023-04-15T14:27:27.089Z,23.92
2023-04-15T14:29:53.484Z,22.97
2023-04-15T14:32:20.471Z,23.22
2023-04-15T14:34:46.954Z,22.90
2023-04-15T14:37:13.457Z,22.16
2023-04-15T14:39:40.022Z,21.78
2023-04-15T14:42:06.398Z,21.66
2023-04-15T14:44:32.904Z,21.95
2023-04-15T14:46:59.544Z,22.17
2023-04-15T14:49:27.099Z,21.66
2023-04-15T14:51:53.609Z,21.29
2023-04-15T14:54:21.909Z,20.97
2023-04-15T14:56:48.892Z,21.10
2023-04-15T14:59:15.411Z,21.31
2023-04-15T15:01:42.079Z,21.45
2023-04-15T15:04:10.714Z,21.21
2023-04-15T15:06:37.329Z,20.65
2023-04-15T15:09:04.511Z,20.58
2023-04-15T15:11:31.209Z,20.67
2023-04-15T15:13:57.728Z,20.72
2023-04-15T15:16:25.141Z,20.68
2023-04-15T15:18:51.677Z,20.83
2023-04-15T15:21:18.188Z,20.75
2023-04-15T15:23:45.250Z,20.61
2023-04-15T15:26:12.331Z,20.50
2023-04-15T15:28:38.817Z,20.52
2023-04-15T15:31:05.551Z,20.80
2023-04-15T15:33:32.100Z,20.88
2023-04-15T15:35:58.844Z,20.93
2023-04-15T15:38:25.386Z,20.92
2023-04-15T15:40:51.860Z,21.12
2023-04-15T15:43:18.387Z,21.10
2023-04-15T15:45:45.303Z,20.98
2023-04-15T15:48:11.905Z,21.05
2023-04-15T15:50:38.322Z,21.07
2023-04-15T15:53:04.832Z,21.07
2023-04-15T15:55:31.313Z,20.91
2023-04-15T15:57:57.802Z,20.50
2023-04-15T16:00:24.343Z,20.39
2023-04-15T16:03:05.972Z,20.36
2023-04-15T16:05:33.621Z,20.44
2023-04-15T16:08:00.211Z,20.46
2023-04-15T16:10:26.772Z,20.41
2023-04-15T16:12:53.349Z,20.13
2023-04-15T16:15:19.953Z,20.19
2023-04-15T16:17:46.557Z,19.98
2023-04-15T16:20:13.125Z,19.87
2023-04-15T16:22:39.659Z,19.84
2023-04-15T16:25:06.648Z,19.53
2023-04-15T16:27:33.850Z,19.45
2023-04-15T16:30:01.627Z,19.30
2023-04-15T16:32:28.239Z,19.22
2023-04-15T16:34:55.444Z,19.07
2023-04-15T16:37:22.040Z,18.89
2023-04-15T16:39:48.549Z,18.87
2023-04-15T16:42:15.076Z,18.84
2023-04-15T16:44:41.552Z,18.74
2023-04-15T16:47:08.039Z,18.70
2023-04-15T16:49:34.529Z,18.55
2023-04-15T16:52:01.038Z,18.45
2023-04-15T16:54:27.536Z,18.40
2023-04-15T16:56:54.071Z,18.29
2023-04-15T16:59:20.546Z,18.16
2023-04-15T17:01:47.073Z,18.07
2023-04-15T17:04:13.717Z,17.94
2023-04-15T17:06:40.324Z,17.82
2023-04-15T17:09:07.152Z,17.69
2023-04-15T17:11:33.850Z,17.56
2023-04-15T17:14:00.461Z,17.44
2023-04-15T17:16:26.963Z,17.29
2023-04-15T17:18:53.628Z,17.21
2023-04-15T17:21:20.081Z,17.07
2023-04-15T17:23:46.599Z,16.92
2023-04-15T17:26:13.158Z,16.80
2023-04-15T17:28:39.664Z,16.61
2023-04-15T17:31:06.325Z,16.49
2023-04-15T17:34:00.796Z,16.37
2023-04-15T17:36:19.443Z,16.23
2023-04-15T17:38:45.949Z,16.17
2023-04-15T17:41:12.635Z,16.14
2023-04-15T17:43:39.122Z,16.07
2023-04-15T17:46:07.298Z,16.02
2023-04-15T17:48:34.384Z,15.91
2023-04-15T17:51:00.891Z,15.80
2023-04-15T17:53:27.517Z,15.67
2023-04-15T17:55:54.029Z,15.59
2023-04-15T17:58:20.509Z,15.58
2023-04-15T18:00:47.336Z,15.54
2023-04-15T18:03:14.332Z,15.48
2023-04-15T18:05:42.678Z,15.43
2023-04-15T18:08:09.859Z,15.40
2023-04-15T18:10:36.915Z,15.28
2023-04-15T18:13:03.469Z,15.25
2023-04-15T18:15:33.358Z,15.16
2023-04-15T18:18:00.253Z,15.08
2023-04-15T18:20:26.735Z,15.09
2023-04-15T18:22:53.308Z,15.02
2023-04-15T18:25:19.815Z,14.96
2023-04-15T18:27:46.348Z,14.91
2023-04-15T18:30:13.211Z,14.82
2023-04-15T18:32:39.934Z,14.79
2023-04-15T18:35:07.059Z,14.79
2023-04-15T18:37:33.688Z,14.78
2023-04-15T18:40:00.185Z,14.74
2023-04-15T18:42:26.731Z,14.75
2023-04-15T18:44:53.571Z,14.71
2023-04-15T18:47:20.194Z,14.67
2023-04-15T18:49:46.753Z,14.60
2023-04-15T18:52:13.300Z,14.56
2023-04-15T18:54:39.810Z,14.43
2023-04-15T18:57:06.489Z,14.30
2023-04-15T18:59:33.628Z,14.29
2023-04-15T19:02:00.600Z,14.15
2023-04-15T19:04:27.274Z,14.21
2023-04-15T19:06:53.940Z,14.26
2023-04-15T19:09:20.480Z,14.29
2023-04-15T19:11:46.966Z,14.28
2023-04-15T19:14:13.472Z,14.24
2023-04-15T19:16:40.009Z,14.17
2023-04-15T19:19:06.815Z,14.14
2023-04-15T19:21:33.506Z,14.05
2023-04-15T19:24:00.678Z,14.00
2023-04-15T19:26:27.345Z,13.91
2023-04-15T19:28:53.943Z,13.88
2023-04-15T19:31:20.648Z,13.76
2023-04-15T19:33:47.201Z,13.79
2023-04-15T19:36:13.758Z,13.75
2023-04-15T19:38:40.363Z,13.73
2023-04-15T19:41:06.842Z,13.59
2023-04-15T19:43:33.382Z,13.51
2023-04-15T19:46:00.092Z,13.49
2023-04-15T19:48:26.703Z,13.57
2023-04-15T19:50:53.358Z,13.58
2023-04-15T19:53:19.995Z,13.57
2023-04-15T19:55:46.507Z,13.55
2023-04-15T19:58:13.012Z,13.48
2023-04-15T20:00:39.584Z,13.34
2023-04-15T20:03:06.283Z,13.34
2023-04-15T20:05:32.945Z,13.12
2023-04-15T20:08:00.930Z,13.20
2023-04-15T20:10:27.595Z,13.21
2023-04-15T20:12:54.101Z,13.05
2023-04-15T20:15:20.718Z,13.12
2023-04-15T20:17:47.381Z,13.10
2023-04-15T20:20:14.025Z,12.99
2023-04-15T20:22:40.619Z,13.04
2023-04-15T20:25:07.661Z,13.10
2023-04-15T20:27:34.079Z,13.06
2023-04-15T20:30:00.611Z,13.01
2023-04-15T20:32:27.096Z,13.02
2023-04-15T20:34:53.911Z,13.01
2023-04-15T20:37:20.453Z,12.99
2023-04-15T20:39:46.946Z,13.02
2023-04-15T20:42:13.438Z,13.05
2023-04-15T20:44:40.142Z,12.97
2023-04-15T20:47:07.287Z,12.91
2023-04-15T20:49:37.989Z,12.88
2023-04-15T20:52:06.326Z,12.85
2023-04-15T20:54:32.906Z,12.89
2023-04-15T20:56:59.797Z,12.87
2023-04-15T20:59:26.341Z,12.85
2023-04-15T21:01:52.965Z,12.87
2023-04-15T21:04:19.821Z,12.83
2023-04-15T21:06:46.733Z,12.87
2023-04-15T21:09:13.631Z,12.91
2023-04-15T21:11:57.475Z,12.77
2023-04-15T21:14:26.695Z,12.78
2023-04-15T21:16:53.211Z,12.76
2023-04-15T21:19:19.735Z,12.76
2023-04-15T21:21:46.259Z,12.77
2023-04-15T21:24:12.761Z,12.76
2023-04-15T21:26:39.223Z,12.77
2023-04-15T21:29:07.843Z,12.73
2023-04-15T21:31:36.176Z,12.70
2023-04-15T21:34:02.720Z,12.62
2023-04-15T21:36:29.241Z,12.62
2023-04-15T21:38:55.784Z,12.62
2023-04-15T21:41:22.468Z,12.58
2023-04-15T21:43:49.038Z,12.57
2023-04-15T21:46:23.229Z,12.53
2023-04-15T21:48:53.402Z,12.51
2023-04-15T21:51:20.265Z,12.44
2023-04-15T21:53:47.050Z,12.40
2023-04-15T21:56:13.627Z,12.28
2023-04-15T21:58:40.308Z,12.21
2023-04-15T22:01:06.956Z,12.16
2023-04-15T22:03:34.663Z,12.13
2023-04-15T22:06:02.707Z,12.02
2023-04-15T22:08:30.129Z,11.93
2023-04-15T22:10:57.493Z,11.88
2023-04-15T22:13:23.988Z,11.77
2023-04-15T22:15:50.438Z,11.74
2023-04-15T22:18:16.953Z,11.63
2023-04-15T22:20:43.552Z,11.51
2023-04-15T22:23:10.079Z,11.46
2023-04-15T22:25:37.418Z,11.43
2023-04-15T22:28:05.601Z,11.36
2023-04-15T22:30:32.509Z,11.32
2023-04-15T22:32:59.084Z,11.24
2023-04-15T22:35:25.683Z,11.15
2023-04-15T22:37:52.670Z,11.13
2023-04-15T22:40:19.269Z,11.05
2023-04-15T22:42:46.056Z,10.97
2023-04-15T22:45:12.562Z,10.91
2023-04-15T22:47:39.116Z,10.89
2023-04-15T22:50:06.562Z,10.84
2023-04-15T22:52:33.062Z,10.78
2023-04-15T22:54:59.672Z,10.70
2023-04-15T22:57:26.277Z,10.69
2023-04-15T22:59:52.813Z,10.63
2023-04-15T23:02:19.582Z,10.55
2023-04-15T23:04:46.505Z,10.54
2023-04-15T23:07:13.040Z,10.38
2023-04-15T23:09:39.801Z,10.30
2023-04-15T23:12:06.689Z,10.28
2023-04-15T23:14:33.202Z,10.24
2023-04-15T23:16:59.674Z,10.12
2023-04-15T23:19:26.213Z,10.09
2023-04-15T23:21:54.129Z,10.07
2023-04-15T23:24:20.661Z,10.05
2023-04-15T23:26:47.245Z,9.90
2023-04-15T23:29:13.794Z,9.94
2023-04-15T23:31:40.441Z,9.86
2023-04-15T23:34:07.034Z,9.91
2023-04-15T23:36:33.515Z,10.00
2023-04-15T23:39:00.212Z,9.99
2023-04-15T23:41:26.832Z,10.00
2023-04-15T23:43:53.311Z,10.10
2023-04-15T23:46:19.909Z,9.92
2023-04-15T23:48:46.445Z,9.97
2023-04-15T23:51:12.965Z,10.01
2023-04-15T23:53:39.494Z,9.92
2023-04-15T23:56:06.253Z,9.78
2023-04-15T23:58:34.476Z,9.79
